createdAt,value
2019-02-19T00:00:43.661Z,71.24
2019-02-19T00:05:47.195Z,71.31
2019-02-19T00:10:50.614Z,71.85
2019-02-19T00:15:54.098Z,71.89
2019-02-19T00:20:57.614Z,72.30
2019-02-19T00:26:01.024Z,72.63
2019-02-19T00:31:04.470Z,73.40
2019-02-19T00:36:08.108Z,73.56
2019-02-19T00:41:11.527Z,73.80
2019-02-19T00:46:14.994Z,73.75
2019-02-19T00:51:20.585Z,73.85
2019-02-19T00:56:24.024Z,74.13
2019-02-19T01:01:27.512Z,74.34
2019-02-19T01:06:31.012Z,74.31
2019-02-19T01:11:34.425Z,74.35
2019-02-19T01:16:37.844Z,74.27
2019-02-19T01:21:41.296Z,74.69
2019-02-19T01:26:44.895Z,74.70
2019-02-19T01:31:48.424Z,75.00
2019-02-19T01:36:51.835Z,75.03
2019-02-19T01:41:55.288Z,74.67
2019-02-19T01:46:58.731Z,74.79
2019-02-19T01:52:02.139Z,74.40
2019-02-19T01:57:05.561Z,74.01
2019-02-19T02:02:09.036Z,73.94
2019-02-19T02:07:12.480Z,73.65
2019-02-19T02:12:15.921Z,73.30
2019-02-19T02:17:19.347Z,73.65
2019-02-19T02:22:22.786Z,73.60
2019-02-19T02:27:26.201Z,73.82
2019-02-19T02:32:29.635Z,73.58
2019-02-19T02:37:33.065Z,74.00
2019-02-19T02:42:36.469Z,73.73
2019-02-19T02:47:39.917Z,73.96
2019-02-19T02:52:43.349Z,74.13
2019-02-19T02:57:46.789Z,75.13
2019-02-19T03:02:50.206Z,76.31
2019-02-19T03:07:55.324Z,76.68
2019-02-19T03:12:58.746Z,76.61
2019-02-19T03:18:02.360Z,77.45
2019-02-19T03:23:05.801Z,78.13
2019-02-19T03:28:09.219Z,79.11
2019-02-19T03:33:12.692Z,78.44
2019-02-19T03:38:16.123Z,78.85
2019-02-19T03:43:19.662Z,78.46
2019-02-19T03:48:23.077Z,78.45
2019-02-19T03:53:26.713Z,79.31
2019-02-19T03:58:30.104Z,79.03
2019-02-19T04:03:33.726Z,79.77
2019-02-19T04:08:42.974Z,79.67
2019-02-19T04:13:59.035Z,80.34
2019-02-19T04:18:53.525Z,81.49
2019-02-19T04:23:57.000Z,81.48
2019-02-19T04:29:00.509Z,82.59
2019-02-19T04:34:03.994Z,83.77
2019-02-19T04:39:07.639Z,83.84
2019-02-19T04:44:15.411Z,85.64
2019-02-19T04:49:18.889Z,86.37
2019-02-19T04:54:25.471Z,89.25
2019-02-19T04:59:31.894Z,92.93
2019-02-19T05:04:40.431Z,92.11
2019-02-19T05:09:50.777Z,94.43
2019-02-19T05:14:54.274Z,95.04
2019-02-19T05:20:06.912Z,95.10
2019-02-19T05:25:16.254Z,94.17
2019-02-19T05:30:26.849Z,94.16
2019-02-19T05:35:49.517Z,96.48
2019-02-19T05:40:52.950Z,99.01
2019-02-19T05:45:56.415Z,99.21
2019-02-19T05:50:59.811Z,99.15
2019-02-19T05:56:03.238Z,98.54
2019-02-19T06:01:06.686Z,99.77
2019-02-19T06:06:10.115Z,98.99
2019-02-19T06:11:13.548Z,98.25
2019-02-19T06:16:16.995Z,100.00
2019-02-19T06:21:20.419Z,100.00
2019-02-19T06:26:23.866Z,100.00
2019-02-19T06:31:27.358Z,100.00
2019-02-19T06:36:30.791Z,100.00
2019-02-19T06:41:34.241Z,100.00
2019-02-19T06:46:37.679Z,100.00
2019-02-19T06:51:41.111Z,99.97
2019-02-19T06:56:44.549Z,99.58
2019-02-19T07:01:52.222Z,99.37
2019-02-19T07:06:55.687Z,100.00
2019-02-19T07:11:59.119Z,100.00
2019-02-19T07:17:02.563Z,98.62
2019-02-19T07:22:06.671Z,98.74
2019-02-19T07:27:10.098Z,98.30
2019-02-19T07:32:13.538Z,99.39
2019-02-19T07:37:16.966Z,99.31
2019-02-19T07:42:20.437Z,97.88
2019-02-19T07:47:24.831Z,98.71
2019-02-19T07:52:28.375Z,98.09
2019-02-19T07:57:31.797Z,97.45
2019-02-19T08:02:35.211Z,96.69
2019-02-19T08:07:38.654Z,97.09
2019-02-19T08:12:42.068Z,96.75
2019-02-19T08:17:45.488Z,97.83
2019-02-19T08:22:48.926Z,96.16
2019-02-19T08:27:52.348Z,94.91
2019-02-19T08:32:55.800Z,95.61
2019-02-19T08:37:59.660Z,93.88
2019-02-19T08:43:03.077Z,95.57
2019-02-19T08:48:06.503Z,94.04
2019-02-19T08:53:10.303Z,93.77
2019-02-19T08:58:13.719Z,91.28
2019-02-19T09:03:17.145Z,90.93
2019-02-19T09:08:20.570Z,90.37
2019-02-19T09:13:23.994Z,90.07
2019-02-19T09:18:27.510Z,89.08
2019-02-19T09:23:30.940Z,88.28
2019-02-19T09:28:34.374Z,88.02
2019-02-19T09:33:37.806Z,88.23
2019-02-19T09:38:41.235Z,85.33
2019-02-19T09:43:44.649Z,83.81
2019-02-19T09:48:48.062Z,82.94
2019-02-19T09:53:51.504Z,82.66
2019-02-19T09:58:54.927Z,79.68
2019-02-19T10:03:58.677Z,79.88
2019-02-19T10:09:02.106Z,75.42
2019-02-19T10:14:05.537Z,74.88
2019-02-19T10:19:08.970Z,75.59
2019-02-19T10:24:12.404Z,75.76
2019-02-19T10:29:15.834Z,76.14
2019-02-19T10:34:19.268Z,73.40
2019-02-19T10:39:22.712Z,70.61
2019-02-19T10:44:26.161Z,68.51
2019-02-19T10:49:29.592Z,69.38
2019-02-19T10:54:33.013Z,69.77
2019-02-19T10:59:36.432Z,67.28
2019-02-19T11:04:40.062Z,66.37
2019-02-19T11:09:43.466Z,65.26
2019-02-19T11:14:46.890Z,64.19
2019-02-19T11:19:50.748Z,61.79
2019-02-19T11:24:54.161Z,62.08
2019-02-19T11:29:57.654Z,62.10
2019-02-19T11:35:01.090Z,61.26
2019-02-19T11:40:06.153Z,62.21
2019-02-19T11:45:17.399Z,62.88
2019-02-19T11:50:20.814Z,63.83
2019-02-19T11:55:24.245Z,64.37
2019-02-19T12:00:38.031Z,63.81
2019-02-19T12:05:41.488Z,63.67
2019-02-19T12:10:44.967Z,63.45
2019-02-19T12:15:48.430Z,62.22
2019-02-19T12:20:51.857Z,63.21
2019-02-19T12:25:55.303Z,63.36
2019-02-19T12:30:58.731Z,61.60
2019-02-19T12:36:02.234Z,62.40
2019-02-19T12:41:05.668Z,62.28
2019-02-19T12:46:09.120Z,60.45
2019-02-19T12:51:12.553Z,58.45
2019-02-19T12:56:16.006Z,59.16
2019-02-19T13:01:19.416Z,59.52
2019-02-19T13:06:22.882Z,60.04
2019-02-19T13:11:26.326Z,60.78
2019-02-19T13:16:29.720Z,60.48
2019-02-19T13:21:33.146Z,60.66
2019-02-19T13:26:36.613Z,60.91
2019-02-19T13:31:40.042Z,61.74
2019-02-19T13:36:43.464Z,60.85
2019-02-19T13:41:46.908Z,62.12
2019-02-19T13:46:50.312Z,61.04
2019-02-19T13:51:55.391Z,61.29
2019-02-19T13:56:58.808Z,61.51
2019-02-19T14:02:02.254Z,61.76
2019-02-19T14:07:05.685Z,62.33
2019-02-19T14:12:09.121Z,62.55
2019-02-19T14:17:12.607Z,62.07
2019-02-19T14:27:39.875Z,62.87
2019-02-19T14:32:59.987Z,63.19
2019-02-19T14:38:21.336Z,63.21
2019-02-19T14:43:38.586Z,63.60
2019-02-19T14:48:43.655Z,63.58
2019-02-19T14:53:51.387Z,64.17
2019-02-19T14:58:56.439Z,63.89
2019-02-19T15:04:10.765Z,64.10
2019-02-19T15:09:21.626Z,63.67
2019-02-19T15:14:43.025Z,63.77
2019-02-19T15:19:53.777Z,63.77
2019-02-19T15:25:14.901Z,64.24
2019-02-19T15:30:25.881Z,63.94
2019-02-19T15:35:33.663Z,64.11
2019-02-19T15:40:38.731Z,65.00
2019-02-19T15:46:00.285Z,64.85
2019-02-19T15:51:05.405Z,63.84
2019-02-19T15:56:26.716Z,64.34
2019-02-19T16:01:48.280Z,64.75
2019-02-19T16:06:53.351Z,64.32
2019-02-19T16:12:07.645Z,64.38
2019-02-19T16:17:28.358Z,65.07
2019-02-19T16:22:36.418Z,64.85
2019-02-19T16:27:41.489Z,66.37
2019-02-19T16:33:02.516Z,65.79
2019-02-19T16:38:07.580Z,65.91
2019-02-19T16:43:29.282Z,66.24
2019-02-19T16:48:43.379Z,66.94
2019-02-19T16:53:54.464Z,66.77
2019-02-19T16:59:07.373Z,67.38
2019-02-19T17:04:12.042Z,67.52
2019-02-19T17:09:20.240Z,67.93
2019-02-19T17:14:33.243Z,67.53
2019-02-19T17:19:52.012Z,67.64
2019-02-19T17:24:57.067Z,68.61
2019-02-19T17:30:11.824Z,68.50
2019-02-19T17:35:22.856Z,68.71
2019-02-19T17:40:44.111Z,68.95
2019-02-19T17:46:07.346Z,68.87
2019-02-19T17:51:27.335Z,69.15
2019-02-19T17:56:48.617Z,69.80
2019-02-19T18:01:53.665Z,70.13
2019-02-19T18:07:01.659Z,70.48
2019-02-19T18:12:21.542Z,70.30
2019-02-19T18:17:42.737Z,70.53
2019-02-19T18:22:46.200Z,70.49
2019-02-19T18:27:49.599Z,71.07
2019-02-19T18:32:53.031Z,71.37
2019-02-19T18:37:56.448Z,71.72
2019-02-19T18:42:59.860Z,72.13
2019-02-19T18:48:03.329Z,71.27
2019-02-19T18:53:07.036Z,70.66
2019-02-19T18:58:10.453Z,69.21
2019-02-19T19:03:13.905Z,69.33
2019-02-19T19:08:17.325Z,69.80
2019-02-19T19:13:20.725Z,70.25
2019-02-19T19:18:24.125Z,70.87
2019-02-19T19:23:27.574Z,70.65
2019-02-19T19:28:30.970Z,71.27
2019-02-19T19:33:34.441Z,71.34
2019-02-19T19:38:37.915Z,71.82
2019-02-19T19:43:41.376Z,72.08
2019-02-19T19:48:46.020Z,72.13
2019-02-19T19:53:49.604Z,72.78
2019-02-19T19:58:53.030Z,73.23
2019-02-19T20:03:57.058Z,73.74
2019-02-19T20:09:00.489Z,74.58
2019-02-19T20:14:03.932Z,74.03
2019-02-19T20:19:07.394Z,75.92
2019-02-19T20:24:10.117Z,75.42
2019-02-19T20:29:12.768Z,75.96
2019-02-19T20:34:16.166Z,76.20
2019-02-19T20:39:19.611Z,77.19
2019-02-19T20:44:22.328Z,77.62
2019-02-19T20:49:25.147Z,78.58
2019-02-19T20:54:28.500Z,79.20
2019-02-19T20:59:31.943Z,80.11
2019-02-19T21:04:35.349Z,80.51
2019-02-19T21:09:43.669Z,81.41
2019-02-19T21:14:43.309Z,81.56
2019-02-19T21:19:46.045Z,82.25
2019-02-19T21:24:49.439Z,81.87
2019-02-19T21:29:52.870Z,83.07
2019-02-19T21:34:56.316Z,83.63
2019-02-19T21:39:59.719Z,84.33
2019-02-19T21:45:03.227Z,84.05
2019-02-19T21:50:08.717Z,83.96
2019-02-19T21:55:13.744Z,84.78
2019-02-19T22:00:19.340Z,85.51
2019-02-19T22:05:22.754Z,85.81
2019-02-19T22:10:26.200Z,85.97
2019-02-19T22:15:29.645Z,86.02
2019-02-19T22:20:40.682Z,86.37
2019-02-19T22:25:44.182Z,86.92
2019-02-19T22:30:47.605Z,87.89
2019-02-19T22:35:51.056Z,87.10
2019-02-19T22:40:55.413Z,86.92
2019-02-19T22:45:59.009Z,86.96
2019-02-19T22:51:02.476Z,87.29
2019-02-19T22:56:07.555Z,87.38
2019-02-19T23:01:14.125Z,87.09
2019-02-19T23:06:17.576Z,86.73
2019-02-19T23:11:21.014Z,87.32
2019-02-19T23:16:24.421Z,87.16
2019-02-19T23:21:27.898Z,87.66
2019-02-19T23:26:31.599Z,88.16
2019-02-19T23:31:35.062Z,88.46
2019-02-19T23:36:43.015Z,88.57
2019-02-19T23:41:46.421Z,89.47
2019-02-19T23:46:49.841Z,89.14
2019-02-19T23:51:53.301Z,89.33
2019-02-19T23:56:56.719Z,89.48
